sensor_id;sensor_type;location;lat;lon;timestamp;pressure;altitude;pressure_sealevel;temperature;humidity
75656;BME280;64252;51.094;13.714;2023-06-10T00:01:57;100192.25;;;17.79;100.00
75656;BME280;64252;51.094;13.714;2023-06-10T00:04:27;100192.31;;;17.75;100.00
75656;BME280;64252;51.094;13.714;2023-06-10T00:06:53;100203.03;;;17.71;100.00
75656;BME280;64252;51.094;13.714;2023-06-10T00:09:19;100203.09;;;17.68;100.00
75656;BME280;64252;51.094;13.714;2023-06-10T00:11:46;100201.50;;;17.67;100.00
75656;BME280;64252;51.094;13.714;2023-06-10T00:14:12;100202.97;;;17.75;95.29
75656;BME280;64252;51.094;13.714;2023-06-10T00:16:38;100192.31;;;17.75;96.31
75656;BME280;64252;51.094;13.714;2023-06-10T00:19:04;100193.94;;;17.76;95.64
75656;BME280;64252;51.094;13.714;2023-06-10T00:21:32;100188.22;;;17.76;89.68
75656;BME280;64252;51.094;13.714;2023-06-10T00:24:06;100202.59;;;17.73;90.24
75656;BME280;64252;51.094;13.714;2023-06-10T00:26:32;100204.72;;;17.69;88.76
75656;BME280;64252;51.094;13.714;2023-06-10T00:29:01;100202.38;;;17.64;89.62
75656;BME280;64252;51.094;13.714;2023-06-10T00:31:29;100210.72;;;17.54;91.27
75656;BME280;64252;51.094;13.714;2023-06-10T00:33:55;100212.34;;;17.55;86.90
75656;BME280;64252;51.094;13.714;2023-06-10T00:36:21;100208.53;;;17.62;84.33
75656;BME280;64252;51.094;13.714;2023-06-10T00:38:47;100215.06;;;17.63;84.19
75656;BME280;64252;51.094;13.714;2023-06-10T00:43:39;100217.19;;;17.59;85.73
75656;BME280;64252;51.094;13.714;2023-06-10T00:46:05;100219.28;;;17.74;81.75
75656;BME280;64252;51.094;13.714;2023-06-10T00:48:32;100218.19;;;17.68;85.82
75656;BME280;64252;51.094;13.714;2023-06-10T00:50:57;100224.50;;;17.60;88.18
75656;BME280;64252;51.094;13.714;2023-06-10T00:53:25;100232.88;;;17.47;88.52
75656;BME280;64252;51.094;13.714;2023-06-10T00:55:51;100234.75;;;17.37;88.12
75656;BME280;64252;51.094;13.714;2023-06-10T00:58:17;100243.94;;;17.25;88.75
75656;BME280;64252;51.094;13.714;2023-06-10T01:00:43;100238.31;;;17.22;89.51
75656;BME280;64252;51.094;13.714;2023-06-10T01:03:10;100249.50;;;17.13;90.43
75656;BME280;64252;51.094;13.714;2023-06-10T01:05:38;100249.94;;;17.11;86.32
75656;BME280;64252;51.094;13.714;2023-06-10T01:08:16;100251.16;;;17.10;87.01
75656;BME280;64252;51.094;13.714;2023-06-10T01:10:58;100261.28;;;17.15;85.17
75656;BME280;64252;51.094;13.714;2023-06-10T01:13:25;100265.44;;;17.10;88.26
75656;BME280;64252;51.094;13.714;2023-06-10T01:15:54;100263.97;;;17.02;89.61
75656;BME280;64252;51.094;13.714;2023-06-10T01:18:20;100260.81;;;16.96;89.99
75656;BME280;64252;51.094;13.714;2023-06-10T01:20:48;100262.13;;;16.92;90.38
75656;BME280;64252;51.094;13.714;2023-06-10T01:23:15;100261.88;;;16.83;91.76
75656;BME280;64252;51.094;13.714;2023-06-10T01:26:02;100271.88;;;16.71;92.98
75656;BME280;64252;51.094;13.714;2023-06-10T01:28:40;100268.72;;;16.65;93.28
75656;BME280;64252;51.094;13.714;2023-06-10T01:34:00;100269.03;;;16.44;92.35
75656;BME280;64252;51.094;13.714;2023-06-10T01:36:27;100267.53;;;16.36;94.04
75656;BME280;64252;51.094;13.714;2023-06-10T01:38:55;100276.56;;;16.31;93.68
75656;BME280;64252;51.094;13.714;2023-06-10T01:41:22;100275.75;;;16.31;92.96
75656;BME280;64252;51.094;13.714;2023-06-10T01:43:48;100277.47;;;16.24;93.49
75656;BME280;64252;51.094;13.714;2023-06-10T01:46:15;100283.72;;;16.16;94.96
75656;BME280;64252;51.094;13.714;2023-06-10T01:48:41;100281.31;;;16.14;95.72
75656;BME280;64252;51.094;13.714;2023-06-10T01:51:08;100288.56;;;16.19;96.38
75656;BME280;64252;51.094;13.714;2023-06-10T01:53:35;100280.94;;;16.12;97.90
75656;BME280;64252;51.094;13.714;2023-06-10T01:56:01;100280.25;;;16.05;98.51
75656;BME280;64252;51.094;13.714;2023-06-10T01:58:28;100293.81;;;15.94;98.61
75656;BME280;64252;51.094;13.714;2023-06-10T02:00:54;100292.31;;;15.86;100.00
75656;BME280;64252;51.094;13.714;2023-06-10T02:03:20;100296.03;;;15.79;100.00
75656;BME280;64252;51.094;13.714;2023-06-10T02:05:46;100292.06;;;15.73;100.00
75656;BME280;64252;51.094;13.714;2023-06-10T02:08:11;100296.97;;;15.72;100.00
75656;BME280;64252;51.094;13.714;2023-06-10T02:10:37;100294.47;;;15.74;100.00
75656;BME280;64252;51.094;13.714;2023-06-10T02:13:03;100300.97;;;15.75;100.00
75656;BME280;64252;51.094;13.714;2023-06-10T02:15:28;100304.72;;;15.68;100.00
75656;BME280;64252;51.094;13.714;2023-06-10T02:17:55;100302.84;;;15.58;100.00
75656;BME280;64252;51.094;13.714;2023-06-10T02:20:21;100305.31;;;15.49;100.00
75656;BME280;64252;51.094;13.714;2023-06-10T02:22:47;100308.66;;;15.44;100.00
75656;BME280;64252;51.094;13.714;2023-06-10T02:25:12;100310.69;;;15.44;100.00
75656;BME280;64252;51.094;13.714;2023-06-10T02:27:38;100313.56;;;15.40;100.00
75656;BME280;64252;51.094;13.714;2023-06-10T02:30:04;100325.00;;;15.36;100.00
75656;BME280;64252;51.094;13.714;2023-06-10T02:32:33;100321.34;;;15.36;100.00
75656;BME280;64252;51.094;13.714;2023-06-10T02:34:59;100318.66;;;15.22;100.00
75656;BME280;64252;51.094;13.714;2023-06-10T02:37:26;100321.19;;;15.13;100.00
75656;BME280;64252;51.094;13.714;2023-06-10T02:39:54;100310.66;;;15.10;100.00
75656;BME280;64252;51.094;13.714;2023-06-10T02:42:20;100312.28;;;15.11;100.00
75656;BME280;64252;51.094;13.714;2023-06-10T02:44:47;100313.09;;;15.11;100.00
75656;BME280;64252;51.094;13.714;2023-06-10T02:47:18;100310.72;;;15.03;100.00
75656;BME280;64252;51.094;13.714;2023-06-10T02:49:44;100309.94;;;14.99;100.00
75656;BME280;64252;51.094;13.714;2023-06-10T02:52:09;100307.50;;;15.01;100.00
75656;BME280;64252;51.094;13.714;2023-06-10T02:54:37;100311.13;;;15.05;100.00
75656;BME280;64252;51.094;13.714;2023-06-10T02:57:04;100311.56;;;15.00;100.00
75656;BME280;64252;51.094;13.714;2023-06-10T02:59:30;100309.13;;;15.02;100.00
75656;BME280;64252;51.094;13.714;2023-06-10T03:01:56;100308.31;;;15.01;100.00
75656;BME280;64252;51.094;13.714;2023-06-10T03:04:23;100309.53;;;15.00;100.00
75656;BME280;64252;51.094;13.714;2023-06-10T03:06:58;100311.97;;;14.98;100.00
75656;BME280;64252;51.094;13.714;2023-06-10T03:09:31;100312.44;;;14.97;99.56
75656;BME280;64252;51.094;13.714;2023-06-10T03:11:58;100311.63;;;14.96;100.00
75656;BME280;64252;51.094;13.714;2023-06-10T03:14:27;100308.78;;;14.92;100.00
75656;BME280;64252;51.094;13.714;2023-06-10T03:16:53;100314.94;;;14.87;100.00
75656;BME280;64252;51.094;13.714;2023-06-10T03:19:21;100312.47;;;14.89;100.00
75656;BME280;64252;51.094;13.714;2023-06-10T03:21:59;100317.34;;;14.89;99.85
75656;BME280;64252;51.094;13.714;2023-06-10T03:24:32;100310.09;;;14.84;100.00
75656;BME280;64252;51.094;13.714;2023-06-10T03:26:58;100320.66;;;14.84;100.00
75656;BME280;64252;51.094;13.714;2023-06-10T03:29:24;100313.69;;;14.88;100.00
75656;BME280;64252;51.094;13.714;2023-06-10T03:31:50;100312.88;;;14.91;100.00
75656;BME280;64252;51.094;13.714;2023-06-10T03:34:16;100317.72;;;14.94;100.00
75656;BME280;64252;51.094;13.714;2023-06-10T03:36:41;100314.81;;;15.02;100.00
75656;BME280;64252;51.094;13.714;2023-06-10T03:39:08;100317.16;;;15.10;99.45
75656;BME280;64252;51.094;13.714;2023-06-10T03:41:35;100313.88;;;15.12;99.07
75656;BME280;64252;51.094;13.714;2023-06-10T03:44:01;100320.34;;;15.16;99.67
75656;BME280;64252;51.094;13.714;2023-06-10T03:46:27;100316.25;;;15.17;99.25
75656;BME280;64252;51.094;13.714;2023-06-10T03:48:53;100322.72;;;15.21;98.97
75656;BME280;64252;51.094;13.714;2023-06-10T03:51:19;100320.72;;;15.18;99.92
75656;BME280;64252;51.094;13.714;2023-06-10T03:53:45;100327.56;;;15.24;98.70
75656;BME280;64252;51.094;13.714;2023-06-10T03:56:10;100333.19;;;15.31;98.41
75656;BME280;64252;51.094;13.714;2023-06-10T03:58:36;100335.56;;;15.36;97.70
75656;BME280;64252;51.094;13.714;2023-06-10T04:01:03;100342.81;;;15.44;97.77
75656;BME280;64252;51.094;13.714;2023-06-10T04:03:42;100335.03;;;15.48;97.05
75656;BME280;64252;51.094;13.714;2023-06-10T04:06:09;100331.75;;;15.53;97.20
75656;BME280;64252;51.094;13.714;2023-06-10T04:08:35;100336.59;;;15.56;97.39
75656;BME280;64252;51.094;13.714;2023-06-10T04:11:01;100340.59;;;15.62;96.03
75656;BME280;64252;51.094;13.714;2023-06-10T04:13:28;100333.97;;;15.72;95.82
75656;BME280;64252;51.094;13.714;2023-06-10T04:15:57;100340.78;;;15.78;96.67
75656;BME280;64252;51.094;13.714;2023-06-10T04:18:23;100343.56;;;15.86;96.00
75656;BME280;64252;51.094;13.714;2023-06-10T04:20:50;100341.41;;;15.93;95.13
75656;BME280;64252;51.094;13.714;2023-06-10T04:23:16;100337.22;;;16.05;95.10
75656;BME280;64252;51.094;13.714;2023-06-10T04:25:44;100333.00;;;16.13;94.74
75656;BME280;64252;51.094;13.714;2023-06-10T04:28:11;100324.25;;;16.27;94.88
75656;BME280;64252;51.094;13.714;2023-06-10T04:30:36;100320.94;;;16.32;94.52
75656;BME280;64252;51.094;13.714;2023-06-10T04:33:02;100330.97;;;16.40;94.00
75656;BME280;64252;51.094;13.714;2023-06-10T04:35:28;100336.09;;;16.52;92.68
75656;BME280;64252;51.094;13.714;2023-06-10T04:38:08;100333.16;;;16.59;93.40
75656;BME280;64252;51.094;13.714;2023-06-10T04:40:34;100338.69;;;16.70;92.86
75656;BME280;64252;51.094;13.714;2023-06-10T04:43:01;100339.28;;;16.85;91.81
75656;BME280;64252;51.094;13.714;2023-06-10T04:45:28;100338.28;;;16.95;91.91
75656;BME280;64252;51.094;13.714;2023-06-10T04:47:55;100341.75;;;17.06;90.47
75656;BME280;64252;51.094;13.714;2023-06-10T04:50:21;100333.81;;;17.17;90.35
75656;BME280;64252;51.094;13.714;2023-06-10T04:52:48;100343.34;;;17.30;90.12
75656;BME280;64252;51.094;13.714;2023-06-10T04:55:13;100339.72;;;17.49;89.43
75656;BME280;64252;51.094;13.714;2023-06-10T04:57:39;100338.16;;;17.68;87.90
75656;BME280;64252;51.094;13.714;2023-06-10T05:00:05;100340.78;;;17.79;88.21
75656;BME280;64252;51.094;13.714;2023-06-10T05:02:31;100337.13;;;17.98;87.27
75656;BME280;64252;51.094;13.714;2023-06-10T05:04:59;100329.72;;;19.50;81.16
75656;BME280;64252;51.094;13.714;2023-06-10T05:07:25;100324.78;;;22.92;69.15
75656;BME280;64252;51.094;13.714;2023-06-10T05:09:51;100324.97;;;25.57;58.45
75656;BME280;64252;51.094;13.714;2023-06-10T05:12:16;100336.09;;;26.55;54.39
75656;BME280;64252;51.094;13.714;2023-06-10T05:14:42;100339.53;;;28.25;50.51
75656;BME280;64252;51.094;13.714;2023-06-10T05:17:08;100330.41;;;29.48;46.30
75656;BME280;64252;51.094;13.714;2023-06-10T05:19:33;100335.56;;;29.70;47.59
75656;BME280;64252;51.094;13.714;2023-06-10T05:22:01;100345.84;;;30.91;43.47
75656;BME280;64252;51.094;13.714;2023-06-10T05:24:28;100346.56;;;31.42;41.28
75656;BME280;64252;51.094;13.714;2023-06-10T05:26:53;100349.38;;;29.86;43.71
75656;BME280;64252;51.094;13.714;2023-06-10T05:29:19;100345.47;;;31.51;42.51
75656;BME280;64252;51.094;13.714;2023-06-10T05:31:45;100345.59;;;30.73;41.52
75656;BME280;64252;51.094;13.714;2023-06-10T05:34:10;100349.81;;;30.94;40.83
75656;BME280;64252;51.094;13.714;2023-06-10T05:36:36;100346.13;;;31.10;42.10
75656;BME280;64252;51.094;13.714;2023-06-10T05:39:04;100352.53;;;29.83;43.24
75656;BME280;64252;51.094;13.714;2023-06-10T05:41:30;100349.84;;;30.49;42.46
75656;BME280;64252;51.094;13.714;2023-06-10T05:43:56;100358.69;;;31.74;41.37
75656;BME280;64252;51.094;13.714;2023-06-10T05:46:21;100350.31;;;32.47;39.94
75656;BME280;64252;51.094;13.714;2023-06-10T05:48:47;100348.22;;;32.01;39.38
75656;BME280;64252;51.094;13.714;2023-06-10T05:51:13;100355.78;;;32.67;38.17
75656;BME280;64252;51.094;13.714;2023-06-10T05:53:38;100357.19;;;31.40;40.83
75656;BME280;64252;51.094;13.714;2023-06-10T05:56:05;100348.50;;;30.67;42.13
75656;BME280;64252;51.094;13.714;2023-06-10T05:58:30;100354.59;;;31.99;39.63
75656;BME280;64252;51.094;13.714;2023-06-10T06:01:01;100353.81;;;31.93;39.46
75656;BME280;64252;51.094;13.714;2023-06-10T06:03:26;100346.91;;;32.78;38.90
75656;BME280;64252;51.094;13.714;2023-06-10T06:05:53;100350.06;;;31.98;39.44
75656;BME280;64252;51.094;13.714;2023-06-10T06:08:19;100353.66;;;32.62;38.58
75656;BME280;64252;51.094;13.714;2023-06-10T06:10:45;100350.28;;;31.59;39.47
75656;BME280;64252;51.094;13.714;2023-06-10T06:13:13;100350.03;;;32.04;39.42
75656;BME280;64252;51.094;13.714;2023-06-10T06:15:39;100348.66;;;31.53;40.34
75656;BME280;64252;51.094;13.714;2023-06-10T06:18:05;100350.09;;;30.74;41.67
75656;BME280;64252;51.094;13.714;2023-06-10T06:20:30;100350.34;;;30.76;42.98
75656;BME280;64252;51.094;13.714;2023-06-10T06:22:56;100358.97;;;29.92;44.42
75656;BME280;64252;51.094;13.714;2023-06-10T06:25:22;100361.63;;;29.42;44.91
75656;BME280;64252;51.094;13.714;2023-06-10T06:27:48;100349.47;;;30.03;43.43
75656;BME280;64252;51.094;13.714;2023-06-10T06:30:14;100366.91;;;29.44;44.33
75656;BME280;64252;51.094;13.714;2023-06-10T06:32:39;100357.88;;;29.36;46.33
75656;BME280;64252;51.094;13.714;2023-06-10T06:35:05;100357.50;;;31.08;41.67
75656;BME280;64252;51.094;13.714;2023-06-10T06:37:33;100354.59;;;30.86;42.75
75656;BME280;64252;51.094;13.714;2023-06-10T06:40:24;100361.84;;;29.39;45.15
75656;BME280;64252;51.094;13.714;2023-06-10T06:42:50;100362.41;;;29.00;45.43
75656;BME280;64252;51.094;13.714;2023-06-10T06:45:36;100362.28;;;29.69;44.46
75656;BME280;64252;51.094;13.714;2023-06-10T06:48:02;100364.94;;;30.87;42.52
75656;BME280;64252;51.094;13.714;2023-06-10T06:50:27;100367.81;;;31.31;41.70
75656;BME280;64252;51.094;13.714;2023-06-10T06:52:53;100372.53;;;30.29;42.61
75656;BME280;64252;51.094;13.714;2023-06-10T06:55:19;100378.34;;;30.23;43.50
75656;BME280;64252;51.094;13.714;2023-06-10T06:57:44;100384.09;;;28.02;46.60
75656;BME280;64252;51.094;13.714;2023-06-10T07:00:11;100392.16;;;28.12;48.60
75656;BME280;64252;51.094;13.714;2023-06-10T07:02:37;100389.41;;;29.49;46.28
75656;BME280;64252;51.094;13.714;2023-06-10T07:05:03;100394.97;;;29.10;46.48
75656;BME280;64252;51.094;13.714;2023-06-10T07:07:29;100389.81;;;31.44;44.34
75656;BME280;64252;51.094;13.714;2023-06-10T07:09:54;100395.38;;;32.27;40.25
75656;BME280;64252;51.094;13.714;2023-06-10T07:12:23;100395.63;;;31.60;40.89
75656;BME280;64252;51.094;13.714;2023-06-10T07:14:58;100404.19;;;28.77;45.47
75656;BME280;64252;51.094;13.714;2023-06-10T07:17:24;100405.44;;;27.78;48.19
75656;BME280;64252;51.094;13.714;2023-06-10T07:19:50;100406.28;;;26.65;51.16
75656;BME280;64252;51.094;13.714;2023-06-10T07:22:16;100409.75;;;25.87;53.82
75656;BME280;64252;51.094;13.714;2023-06-10T07:24:45;100404.97;;;25.03;54.72
75656;BME280;64252;51.094;13.714;2023-06-10T07:27:11;100408.50;;;24.47;56.72
75656;BME280;64252;51.094;13.714;2023-06-10T07:29:37;100410.63;;;24.28;57.91
75656;BME280;64252;51.094;13.714;2023-06-10T07:32:03;100405.16;;;24.30;58.14
75656;BME280;64252;51.094;13.714;2023-06-10T07:34:29;100418.44;;;24.46;57.28
75656;BME280;64252;51.094;13.714;2023-06-10T07:36:55;100414.06;;;24.69;56.48
75656;BME280;64252;51.094;13.714;2023-06-10T07:39:20;100413.69;;;25.98;54.41
75656;BME280;64252;51.094;13.714;2023-06-10T07:41:46;100410.22;;;26.91;52.44
75656;BME280;64252;51.094;13.714;2023-06-10T07:44:11;100413.91;;;27.06;51.38
75656;BME280;64252;51.094;13.714;2023-06-10T07:46:37;100411.72;;;27.91;49.26
75656;BME280;64252;51.094;13.714;2023-06-10T07:49:02;100409.97;;;28.46;48.29
75656;BME280;64252;51.094;13.714;2023-06-10T07:51:28;100407.50;;;30.29;45.46
75656;BME280;64252;51.094;13.714;2023-06-10T07:53:54;100407.59;;;30.45;45.29
75656;BME280;64252;51.094;13.714;2023-06-10T07:56:19;100411.00;;;30.44;44.86
75656;BME280;64252;51.094;13.714;2023-06-10T07:58:47;100406.25;;;29.82;47.50
75656;BME280;64252;51.094;13.714;2023-06-10T08:01:12;100397.75;;;30.32;45.42
75656;BME280;64252;51.094;13.714;2023-06-10T08:03:38;100403.31;;;30.35;46.98
75656;BME280;64252;51.094;13.714;2023-06-10T08:06:03;100406.16;;;28.86;46.64
75656;BME280;64252;51.094;13.714;2023-06-10T08:08:29;100412.50;;;28.12;49.50
75656;BME280;64252;51.094;13.714;2023-06-10T08:10:55;100411.69;;;27.71;49.59
75656;BME280;64252;51.094;13.714;2023-06-10T08:13:20;100406.78;;;27.42;49.33
75656;BME280;64252;51.094;13.714;2023-06-10T08:15:46;100408.50;;;26.99;51.74
75656;BME280;64252;51.094;13.714;2023-06-10T08:18:13;100410.41;;;27.02;51.03
75656;BME280;64252;51.094;13.714;2023-06-10T08:20:38;100413.06;;;27.21;52.33
75656;BME280;64252;51.094;13.714;2023-06-10T08:23:04;100405.00;;;27.45;51.57
75656;BME280;64252;51.094;13.714;2023-06-10T08:25:29;100423.47;;;27.13;52.20
75656;BME280;64252;51.094;13.714;2023-06-10T08:27:56;100420.44;;;27.22;53.38
75656;BME280;64252;51.094;13.714;2023-06-10T08:30:24;100414.28;;;26.99;53.43
75656;BME280;64252;51.094;13.714;2023-06-10T08:32:50;100419.00;;;27.32;53.12
75656;BME280;64252;51.094;13.714;2023-06-10T08:35:18;100423.53;;;27.68;52.80
75656;BME280;64252;51.094;13.714;2023-06-10T08:37:44;100420.25;;;27.25;52.37
75656;BME280;64252;51.094;13.714;2023-06-10T08:40:09;100418.09;;;27.75;52.18
75656;BME280;64252;51.094;13.714;2023-06-10T08:42:41;100421.91;;;28.07;51.23
75656;BME280;64252;51.094;13.714;2023-06-10T08:45:12;100417.06;;;28.45;51.12
75656;BME280;64252;51.094;13.714;2023-06-10T08:47:42;100432.13;;;28.43;56.43
75656;BME280;64252;51.094;13.714;2023-06-10T08:50:10;100407.13;;;29.45;47.12
75656;BME280;64252;51.094;13.714;2023-06-10T08:52:37;100414.75;;;29.06;45.39
75656;BME280;64252;51.094;13.714;2023-06-10T08:55:14;100410.59;;;29.12;46.19
75656;BME280;64252;51.094;13.714;2023-06-10T08:57:43;100411.34;;;29.07;43.40
75656;BME280;64252;51.094;13.714;2023-06-10T09:00:12;100416.19;;;28.33;45.26
75656;BME280;64252;51.094;13.714;2023-06-10T09:02:38;100405.88;;;28.12;45.86
75656;BME280;64252;51.094;13.714;2023-06-10T09:05:05;100415.75;;;28.00;46.79
75656;BME280;64252;51.094;13.714;2023-06-10T09:07:31;100412.84;;;27.79;47.10
75656;BME280;64252;51.094;13.714;2023-06-10T09:09:57;100409.44;;;27.26;47.02
75656;BME280;64252;51.094;13.714;2023-06-10T09:12:24;100412.69;;;28.09;48.70
75656;BME280;64252;51.094;13.714;2023-06-10T09:14:49;100409.78;;;28.09;46.24
75656;BME280;64252;51.094;13.714;2023-06-10T09:17:16;100412.88;;;28.20;47.41
75656;BME280;64252;51.094;13.714;2023-06-10T09:19:44;100401.25;;;28.20;46.50
75656;BME280;64252;51.094;13.714;2023-06-10T09:22:09;100407.84;;;28.46;47.22
75656;BME280;64252;51.094;13.714;2023-06-10T09:24:35;100406.63;;;27.86;46.57
75656;BME280;64252;51.094;13.714;2023-06-10T09:27:06;100410.69;;;27.04;48.33
75656;BME280;64252;51.094;13.714;2023-06-10T09:29:51;100406.09;;;26.83;49.03
75656;BME280;64252;51.094;13.714;2023-06-10T09:32:18;100405.00;;;26.95;51.72
75656;BME280;64252;51.094;13.714;2023-06-10T09:34:45;100401.09;;;26.98;51.68
75656;BME280;64252;51.094;13.714;2023-06-10T09:37:11;100402.31;;;26.77;49.54
75656;BME280;64252;51.094;13.714;2023-06-10T09:39:39;100411.91;;;26.83;49.87
75656;BME280;64252;51.094;13.714;2023-06-10T09:42:18;100411.28;;;26.79;47.68
75656;BME280;64252;51.094;13.714;2023-06-10T09:44:53;100418.47;;;26.98;48.16
75656;BME280;64252;51.094;13.714;2023-06-10T09:47:22;100415.28;;;26.52;47.28
75656;BME280;64252;51.094;13.714;2023-06-10T09:49:51;100408.31;;;26.44;48.31
75656;BME280;64252;51.094;13.714;2023-06-10T09:52:26;100404.72;;;26.35;47.38
75656;BME280;64252;51.094;13.714;2023-06-10T09:54:53;100410.38;;;25.91;47.56
75656;BME280;64252;51.094;13.714;2023-06-10T09:57:20;100405.66;;;25.78;46.57
75656;BME280;64252;51.094;13.714;2023-06-10T09:59:46;100412.25;;;26.17;46.82
75656;BME280;64252;51.094;13.714;2023-06-10T10:02:16;100413.91;;;26.48;45.59
75656;BME280;64252;51.094;13.714;2023-06-10T10:04:43;100408.69;;;26.81;44.46
75656;BME280;64252;51.094;13.714;2023-06-10T10:07:09;100419.88;;;27.03;42.96
75656;BME280;64252;51.094;13.714;2023-06-10T10:09:37;100418.22;;;27.31;44.43
75656;BME280;64252;51.094;13.714;2023-06-10T10:12:07;100409.22;;;27.64;44.77
75656;BME280;64252;51.094;13.714;2023-06-10T10:14:35;100414.91;;;27.73;45.04
75656;BME280;64252;51.094;13.714;2023-06-10T10:17:02;100407.78;;;27.94;44.91
75656;BME280;64252;51.094;13.714;2023-06-10T10:19:31;100413.59;;;27.94;45.55
75656;BME280;64252;51.094;13.714;2023-06-10T10:22:07;100406.63;;;27.66;44.79
75656;BME280;64252;51.094;13.714;2023-06-10T10:24:42;100406.47;;;27.75;45.15
75656;BME280;64252;51.094;13.714;2023-06-10T10:27:36;100408.81;;;27.71;45.10
75656;BME280;64252;51.094;13.714;2023-06-10T10:30:06;100422.66;;;27.47;45.81
75656;BME280;64252;51.094;13.714;2023-06-10T10:32:42;100407.28;;;27.41;46.67
75656;BME280;64252;51.094;13.714;2023-06-10T10:35:31;100393.41;;;28.06;45.31
75656;BME280;64252;51.094;13.714;2023-06-10T10:38:04;100405.75;;;27.60;45.47
75656;BME280;64252;51.094;13.714;2023-06-10T10:40:32;100398.78;;;27.92;45.37
75656;BME280;64252;51.094;13.714;2023-06-10T10:43:01;100407.84;;;27.80;44.59
75656;BME280;64252;51.094;13.714;2023-06-10T10:45:30;100408.19;;;28.08;43.37
75656;BME280;64252;51.094;13.714;2023-06-10T10:47:56;100405.38;;;27.53;45.44
75656;BME280;64252;51.094;13.714;2023-06-10T10:50:23;100401.72;;;27.02;46.07
75656;BME280;64252;51.094;13.714;2023-06-10T10:52:59;100404.31;;;26.71;47.41
75656;BME280;64252;51.094;13.714;2023-06-10T10:55:26;100400.81;;;26.38;48.30
75656;BME280;64252;51.094;13.714;2023-06-10T10:58:06;100393.22;;;26.70;47.59
75656;BME280;64252;51.094;13.714;2023-06-10T11:00:33;100390.44;;;27.25;47.83
75656;BME280;64252;51.094;13.714;2023-06-10T11:08:08;100384.84;;;26.04;48.48
75656;BME280;64252;51.094;13.714;2023-06-10T11:10:35;100399.88;;;25.78;49.22
75656;BME280;64252;51.094;13.714;2023-06-10T11:13:12;100393.97;;;25.73;49.21
75656;BME280;64252;51.094;13.714;2023-06-10T11:15:48;100392.22;;;25.90;50.04
75656;BME280;64252;51.094;13.714;2023-06-10T11:18:35;100385.81;;;25.86;49.38
75656;BME280;64252;51.094;13.714;2023-06-10T11:21:05;100380.94;;;26.31;48.92
75656;BME280;64252;51.094;13.714;2023-06-10T11:23:33;100373.66;;;26.50;48.18
75656;BME280;64252;51.094;13.714;2023-06-10T11:26:18;100372.84;;;26.64;47.42
75656;BME280;64252;51.094;13.714;2023-06-10T11:31:20;100367.16;;;26.55;46.70
75656;BME280;64252;51.094;13.714;2023-06-10T11:33:47;100366.75;;;26.33;46.95
75656;BME280;64252;51.094;13.714;2023-06-10T11:36:14;100357.97;;;26.56;47.45
75656;BME280;64252;51.094;13.714;2023-06-10T11:38:41;100362.88;;;26.21;47.66
75656;BME280;64252;51.094;13.714;2023-06-10T11:41:07;100353.78;;;26.28;47.51
75656;BME280;64252;51.094;13.714;2023-06-10T11:43:33;100348.34;;;26.65;47.39
75656;BME280;64252;51.094;13.714;2023-06-10T11:45:59;100345.53;;;26.85;46.40
75656;BME280;64252;51.094;13.714;2023-06-10T11:48:25;100351.94;;;27.24;46.05
75656;BME280;64252;51.094;13.714;2023-06-10T11:50:54;100368.63;;;27.29;46.15
75656;BME280;64252;51.094;13.714;2023-06-10T11:53:20;100357.69;;;27.39;44.33
75656;BME280;64252;51.094;13.714;2023-06-10T11:55:48;100347.44;;;27.58;45.34
75656;BME280;64252;51.094;13.714;2023-06-10T11:58:19;100345.03;;;27.22;44.23
75656;BME280;64252;51.094;13.714;2023-06-10T12:00:50;100361.97;;;26.88;44.14
75656;BME280;64252;51.094;13.714;2023-06-10T12:03:17;100355.03;;;27.00;43.83
75656;BME280;64252;51.094;13.714;2023-06-10T12:06:03;100355.38;;;27.43;43.56
75656;BME280;64252;51.094;13.714;2023-06-10T12:08:29;100350.47;;;27.69;43.99
75656;BME280;64252;51.094;13.714;2023-06-10T12:10:56;100341.84;;;27.55;44.29
75656;BME280;64252;51.094;13.714;2023-06-10T12:13:23;100339.13;;;27.91;42.63
75656;BME280;64252;51.094;13.714;2023-06-10T12:15:51;100345.78;;;28.44;41.83
75656;BME280;64252;51.094;13.714;2023-06-10T12:18:24;100337.50;;;28.62;41.17
75656;BME280;64252;51.094;13.714;2023-06-10T12:20:51;100348.94;;;28.46;41.12
75656;BME280;64252;51.094;13.714;2023-06-10T12:23:17;100330.53;;;28.54;41.50
75656;BME280;64252;51.094;13.714;2023-06-10T12:25:53;100321.75;;;28.74;41.43
75656;BME280;64252;51.094;13.714;2023-06-10T12:28:26;100317.69;;;28.66;41.22
75656;BME280;64252;51.094;13.714;2023-06-10T12:31:13;100324.78;;;27.82;43.65
75656;BME280;64252;51.094;13.714;2023-06-10T12:33:38;100326.28;;;27.17;44.78
75656;BME280;64252;51.094;13.714;2023-06-10T12:36:04;100324.56;;;26.90;44.90
75656;BME280;64252;51.094;13.714;2023-06-10T12:38:31;100312.38;;;26.86;43.22
75656;BME280;64252;51.094;13.714;2023-06-10T12:41:03;100316.44;;;27.29;43.32
75656;BME280;64252;51.094;13.714;2023-06-10T12:43:31;100335.38;;;27.45;39.46
75656;BME280;64252;51.094;13.714;2023-06-10T12:46:08;100321.75;;;27.71;38.61
75656;BME280;64252;51.094;13.714;2023-06-10T12:48:35;100318.84;;;27.71;38.73
75656;BME280;64252;51.094;13.714;2023-06-10T12:51:00;100313.38;;;27.79;38.54
75656;BME280;64252;51.094;13.714;2023-06-10T12:53:26;100319.88;;;27.68;39.16
75656;BME280;64252;51.094;13.714;2023-06-10T12:55:52;100304.16;;;27.80;39.44